sensor_id;sensor_type;location;lat;lon;timestamp;P1;durP1;ratioP1;P2;durP2;ratioP2
10910;SDS011;5508;49.150;11.030;2023-04-24T00:02:24;3.40;;;2.10;;
10910;SDS011;5508;49.150;11.030;2023-04-24T00:05:25;4.73;;;2.50;;
10910;SDS011;5508;49.150;11.030;2023-04-24T00:08:26;3.47;;;2.40;;
10910;SDS011;5508;49.150;11.030;2023-04-24T00:11:27;2.30;;;2.10;;
10910;SDS011;5508;49.150;11.030;2023-04-24T00:14:27;2.63;;;2.27;;
10910;SDS011;5508;49.150;11.030;2023-04-24T00:17:28;2.53;;;2.10;;
10910;SDS011;5508;49.150;11.030;2023-04-24T00:20:29;4.47;;;2.17;;
10910;SDS011;5508;49.150;11.030;2023-04-24T00:23:29;3.27;;;2.47;;
10910;SDS011;5508;49.150;11.030;2023-04-24T00:26:30;2.80;;;2.37;;
10910;SDS011;5508;49.150;11.030;2023-04-24T00:29:31;5.67;;;2.70;;
10910;SDS011;5508;49.150;11.030;2023-04-24T00:32:31;3.50;;;2.67;;
10910;SDS011;5508;49.150;11.030;2023-04-24T00:35:32;10.87;;;2.33;;
10910;SDS011;5508;49.150;11.030;2023-04-24T00:38:32;3.53;;;2.53;;
10910;SDS011;5508;49.150;11.030;2023-04-24T00:41:33;2.57;;;2.37;;
10910;SDS011;5508;49.150;11.030;2023-04-24T00:44:34;4.20;;;2.30;;
10910;SDS011;5508;49.150;11.030;2023-04-24T00:47:35;4.10;;;2.63;;
10910;SDS011;5508;49.150;11.030;2023-04-24T00:50:36;2.40;;;2.20;;
10910;SDS011;5508;49.150;11.030;2023-04-24T00:53:37;5.27;;;2.80;;
10910;SDS011;5508;49.150;11.030;2023-04-24T00:56:38;3.00;;;2.40;;
10910;SDS011;5508;49.150;11.030;2023-04-24T00:59:40;4.20;;;2.13;;
10910;SDS011;5508;49.150;11.030;2023-04-24T01:02:43;3.93;;;2.20;;
10910;SDS011;5508;49.150;11.030;2023-04-24T01:05:45;3.57;;;2.57;;
10910;SDS011;5508;49.150;11.030;2023-04-24T01:08:46;4.10;;;2.27;;
10910;SDS011;5508;49.150;11.030;2023-04-24T01:11:47;3.70;;;1.93;;
10910;SDS011;5508;49.150;11.030;2023-04-24T01:14:48;3.97;;;2.27;;
10910;SDS011;5508;49.150;11.030;2023-04-24T01:17:49;4.83;;;2.20;;
10910;SDS011;5508;49.150;11.030;2023-04-24T01:20:51;4.30;;;2.30;;
10910;SDS011;5508;49.150;11.030;2023-04-24T01:23:54;4.33;;;2.70;;
10910;SDS011;5508;49.150;11.030;2023-04-24T01:26:56;5.43;;;2.20;;
10910;SDS011;5508;49.150;11.030;2023-04-24T01:29:56;2.57;;;2.37;;
10910;SDS011;5508;49.150;11.030;2023-04-24T01:32:57;3.67;;;2.50;;
10910;SDS011;5508;49.150;11.030;2023-04-24T01:35:59;2.40;;;2.20;;
10910;SDS011;5508;49.150;11.030;2023-04-24T01:39:00;5.10;;;2.30;;
10910;SDS011;5508;49.150;11.030;2023-04-24T01:42:01;3.53;;;2.67;;
10910;SDS011;5508;49.150;11.030;2023-04-24T01:45:02;3.23;;;2.53;;
10910;SDS011;5508;49.150;11.030;2023-04-24T01:48:05;5.00;;;2.47;;
10910;SDS011;5508;49.150;11.030;2023-04-24T01:51:05;3.03;;;2.73;;
10910;SDS011;5508;49.150;11.030;2023-04-24T01:54:06;5.80;;;2.50;;
10910;SDS011;5508;49.150;11.030;2023-04-24T01:57:07;3.77;;;3.00;;
10910;SDS011;5508;49.150;11.030;2023-04-24T02:00:08;3.37;;;2.93;;
10910;SDS011;5508;49.150;11.030;2023-04-24T02:03:11;3.33;;;2.63;;
10910;SDS011;5508;49.150;11.030;2023-04-24T02:06:12;2.97;;;2.67;;
10910;SDS011;5508;49.150;11.030;2023-04-24T02:09:13;3.50;;;3.17;;
10910;SDS011;5508;49.150;11.030;2023-04-24T02:12:14;5.80;;;3.03;;
10910;SDS011;5508;49.150;11.030;2023-04-24T02:15:15;4.07;;;2.93;;
10910;SDS011;5508;49.150;11.030;2023-04-24T02:18:16;3.07;;;2.77;;
10910;SDS011;5508;49.150;11.030;2023-04-24T02:21:17;3.47;;;2.57;;
10910;SDS011;5508;49.150;11.030;2023-04-24T02:24:18;2.70;;;2.50;;
10910;SDS011;5508;49.150;11.030;2023-04-24T02:27:18;6.40;;;3.00;;
10910;SDS011;5508;49.150;11.030;2023-04-24T02:30:19;3.17;;;2.87;;
10910;SDS011;5508;49.150;11.030;2023-04-24T02:33:20;3.30;;;2.47;;
10910;SDS011;5508;49.150;11.030;2023-04-24T02:36:20;3.53;;;2.87;;
10910;SDS011;5508;49.150;11.030;2023-04-24T02:39:21;2.80;;;2.40;;
10910;SDS011;5508;49.150;11.030;2023-04-24T02:42:22;6.43;;;3.07;;
10910;SDS011;5508;49.150;11.030;2023-04-24T02:45:22;3.70;;;2.80;;
10910;SDS011;5508;49.150;11.030;2023-04-24T02:48:23;4.23;;;3.00;;
10910;SDS011;5508;49.150;11.030;2023-04-24T02:51:23;8.03;;;3.03;;
10910;SDS011;5508;49.150;11.030;2023-04-24T02:54:25;3.70;;;2.60;;
10910;SDS011;5508;49.150;11.030;2023-04-24T02:57:25;4.23;;;3.57;;
10910;SDS011;5508;49.150;11.030;2023-04-24T03:00:26;4.33;;;3.47;;
10910;SDS011;5508;49.150;11.030;2023-04-24T03:03:26;6.20;;;3.47;;
10910;SDS011;5508;49.150;11.030;2023-04-24T03:06:27;3.80;;;3.40;;
10910;SDS011;5508;49.150;11.030;2023-04-24T03:09:28;4.47;;;3.13;;
10910;SDS011;5508;49.150;11.030;2023-04-24T03:12:28;4.13;;;3.50;;
10910;SDS011;5508;49.150;11.030;2023-04-24T03:15:29;4.70;;;3.47;;
10910;SDS011;5508;49.150;11.030;2023-04-24T03:18:29;3.70;;;3.40;;
10910;SDS011;5508;49.150;11.030;2023-04-24T03:21:30;5.57;;;3.87;;
10910;SDS011;5508;49.150;11.030;2023-04-24T03:24:31;4.30;;;3.40;;
10910;SDS011;5508;49.150;11.030;2023-04-24T03:27:31;5.93;;;3.87;;
10910;SDS011;5508;49.150;11.030;2023-04-24T03:30:32;4.30;;;3.90;;
10910;SDS011;5508;49.150;11.030;2023-04-24T03:33:32;5.70;;;3.67;;
10910;SDS011;5508;49.150;11.030;2023-04-24T03:36:33;4.93;;;3.73;;
10910;SDS011;5508;49.150;11.030;2023-04-24T03:39:34;4.90;;;3.77;;
10910;SDS011;5508;49.150;11.030;2023-04-24T03:42:34;6.33;;;3.97;;
10910;SDS011;5508;49.150;11.030;2023-04-24T03:45:35;7.80;;;3.93;;
10910;SDS011;5508;49.150;11.030;2023-04-24T03:48:35;6.07;;;4.10;;
10910;SDS011;5508;49.150;11.030;2023-04-24T03:51:36;5.20;;;3.90;;
10910;SDS011;5508;49.150;11.030;2023-04-24T03:54:36;4.97;;;4.00;;
10910;SDS011;5508;49.150;11.030;2023-04-24T03:57:37;4.97;;;3.70;;
10910;SDS011;5508;49.150;11.030;2023-04-24T04:00:38;5.73;;;4.00;;
10910;SDS011;5508;49.150;11.030;2023-04-24T04:03:40;5.80;;;4.23;;
10910;SDS011;5508;49.150;11.030;2023-04-24T04:06:40;5.30;;;3.47;;
10910;SDS011;5508;49.150;11.030;2023-04-24T04:09:42;6.33;;;4.10;;
10910;SDS011;5508;49.150;11.030;2023-04-24T04:12:42;5.30;;;3.50;;
10910;SDS011;5508;49.150;11.030;2023-04-24T04:15:43;6.00;;;4.07;;
10910;SDS011;5508;49.150;11.030;2023-04-24T04:18:44;6.67;;;3.77;;
10910;SDS011;5508;49.150;11.030;2023-04-24T04:21:45;4.43;;;3.60;;
10910;SDS011;5508;49.150;11.030;2023-04-24T04:24:45;4.50;;;3.17;;
10910;SDS011;5508;49.150;11.030;2023-04-24T04:27:46;4.50;;;3.40;;
10910;SDS011;5508;49.150;11.030;2023-04-24T04:30:51;7.53;;;3.90;;
10910;SDS011;5508;49.150;11.030;2023-04-24T04:33:53;3.80;;;3.30;;
10910;SDS011;5508;49.150;11.030;2023-04-24T04:36:54;7.53;;;4.90;;
10910;SDS011;5508;49.150;11.030;2023-04-24T04:39:55;6.77;;;5.30;;
10910;SDS011;5508;49.150;11.030;2023-04-24T04:42:55;17.17;;;13.00;;
10910;SDS011;5508;49.150;11.030;2023-04-24T04:45:57;16.57;;;12.30;;
10910;SDS011;5508;49.150;11.030;2023-04-24T04:48:59;13.93;;;9.43;;
10910;SDS011;5508;49.150;11.030;2023-04-24T04:52:01;4.73;;;4.23;;
10910;SDS011;5508;49.150;11.030;2023-04-24T04:55:01;3.57;;;3.10;;
10910;SDS011;5508;49.150;11.030;2023-04-24T04:58:02;5.20;;;3.37;;
10910;SDS011;5508;49.150;11.030;2023-04-24T05:01:03;3.93;;;3.40;;
10910;SDS011;5508;49.150;11.030;2023-04-24T05:04:03;3.97;;;3.20;;
10910;SDS011;5508;49.150;11.030;2023-04-24T05:07:04;3.30;;;2.97;;
10910;SDS011;5508;49.150;11.030;2023-04-24T05:10:05;6.80;;;3.53;;
10910;SDS011;5508;49.150;11.030;2023-04-24T05:13:06;4.40;;;3.40;;
10910;SDS011;5508;49.150;11.030;2023-04-24T05:16:07;5.20;;;3.17;;
10910;SDS011;5508;49.150;11.030;2023-04-24T05:19:07;5.53;;;3.40;;
10910;SDS011;5508;49.150;11.030;2023-04-24T05:22:08;3.70;;;3.40;;
10910;SDS011;5508;49.150;11.030;2023-04-24T05:25:09;4.03;;;3.63;;
10910;SDS011;5508;49.150;11.030;2023-04-24T05:28:10;4.13;;;3.53;;
10910;SDS011;5508;49.150;11.030;2023-04-24T05:31:10;4.07;;;3.63;;
10910;SDS011;5508;49.150;11.030;2023-04-24T05:34:12;3.97;;;3.67;;
10910;SDS011;5508;49.150;11.030;2023-04-24T05:37:12;3.73;;;3.40;;
10910;SDS011;5508;49.150;11.030;2023-04-24T05:40:13;5.77;;;3.87;;
10910;SDS011;5508;49.150;11.030;2023-04-24T05:43:14;7.27;;;3.50;;
10910;SDS011;5508;49.150;11.030;2023-04-24T05:46:15;4.27;;;3.13;;
10910;SDS011;5508;49.150;11.030;2023-04-24T05:49:15;6.60;;;3.40;;
10910;SDS011;5508;49.150;11.030;2023-04-24T05:52:16;3.17;;;2.77;;
10910;SDS011;5508;49.150;11.030;2023-04-24T05:55:16;5.60;;;2.93;;
10910;SDS011;5508;49.150;11.030;2023-04-24T05:58:18;3.77;;;2.63;;
10910;SDS011;5508;49.150;11.030;2023-04-24T06:01:18;4.37;;;3.03;;
10910;SDS011;5508;49.150;11.030;2023-04-24T06:04:19;5.27;;;3.20;;
10910;SDS011;5508;49.150;11.030;2023-04-24T06:07:20;2.97;;;2.63;;
10910;SDS011;5508;49.150;11.030;2023-04-24T06:10:21;3.13;;;2.40;;
10910;SDS011;5508;49.150;11.030;2023-04-24T06:13:21;4.70;;;2.70;;
10910;SDS011;5508;49.150;11.030;2023-04-24T06:16:22;4.20;;;3.20;;
10910;SDS011;5508;49.150;11.030;2023-04-24T06:19:23;4.57;;;2.70;;
10910;SDS011;5508;49.150;11.030;2023-04-24T06:22:23;3.37;;;2.63;;
10910;SDS011;5508;49.150;11.030;2023-04-24T06:25:25;4.67;;;2.80;;
10910;SDS011;5508;49.150;11.030;2023-04-24T06:28:26;5.20;;;2.73;;
10910;SDS011;5508;49.150;11.030;2023-04-24T06:31:27;3.30;;;2.20;;
10910;SDS011;5508;49.150;11.030;2023-04-24T06:34:27;4.23;;;2.30;;
10910;SDS011;5508;49.150;11.030;2023-04-24T06:37:28;2.90;;;2.20;;
10910;SDS011;5508;49.150;11.030;2023-04-24T06:40:29;3.60;;;2.37;;
10910;SDS011;5508;49.150;11.030;2023-04-24T06:43:30;2.50;;;1.87;;
10910;SDS011;5508;49.150;11.030;2023-04-24T06:46:31;2.67;;;1.97;;
10910;SDS011;5508;49.150;11.030;2023-04-24T06:49:32;3.47;;;1.63;;
10910;SDS011;5508;49.150;11.030;2023-04-24T06:52:32;1.70;;;1.60;;
10910;SDS011;5508;49.150;11.030;2023-04-24T06:55:33;4.33;;;1.53;;
10910;SDS011;5508;49.150;11.030;2023-04-24T06:58:35;3.00;;;1.60;;
10910;SDS011;5508;49.150;11.030;2023-04-24T07:01:36;4.80;;;1.47;;
10910;SDS011;5508;49.150;11.030;2023-04-24T07:04:36;1.93;;;1.30;;
10910;SDS011;5508;49.150;11.030;2023-04-24T07:07:37;1.40;;;1.30;;
10910;SDS011;5508;49.150;11.030;2023-04-24T07:10:37;1.97;;;1.40;;
10910;SDS011;5508;49.150;11.030;2023-04-24T07:13:38;1.57;;;1.20;;
10910;SDS011;5508;49.150;11.030;2023-04-24T07:16:41;2.17;;;1.70;;
10910;SDS011;5508;49.150;11.030;2023-04-24T07:19:42;1.77;;;1.27;;
10910;SDS011;5508;49.150;11.030;2023-04-24T07:22:43;1.30;;;1.20;;
10910;SDS011;5508;49.150;11.030;2023-04-24T07:25:44;1.40;;;1.17;;
10910;SDS011;5508;49.150;11.030;2023-04-24T07:28:44;2.17;;;1.30;;
10910;SDS011;5508;49.150;11.030;2023-04-24T07:31:45;1.73;;;1.30;;
10910;SDS011;5508;49.150;11.030;2023-04-24T07:34:46;2.40;;;1.57;;
10910;SDS011;5508;49.150;11.030;2023-04-24T07:37:46;1.47;;;1.17;;
10910;SDS011;5508;49.150;11.030;2023-04-24T07:40:48;1.93;;;1.33;;
10910;SDS011;5508;49.150;11.030;2023-04-24T07:43:48;1.70;;;1.57;;
10910;SDS011;5508;49.150;11.030;2023-04-24T07:46:49;1.93;;;1.57;;
10910;SDS011;5508;49.150;11.030;2023-04-24T07:49:50;4.57;;;1.40;;
10910;SDS011;5508;49.150;11.030;2023-04-24T07:52:51;1.97;;;1.60;;
10910;SDS011;5508;49.150;11.030;2023-04-24T07:55:51;2.67;;;1.50;;
10910;SDS011;5508;49.150;11.030;2023-04-24T07:58:53;2.90;;;1.90;;
10910;SDS011;5508;49.150;11.030;2023-04-24T08:01:54;1.87;;;1.67;;
10910;SDS011;5508;49.150;11.030;2023-04-24T08:04:55;2.20;;;2.00;;
10910;SDS011;5508;49.150;11.030;2023-04-24T08:07:56;3.53;;;3.23;;
10910;SDS011;5508;49.150;11.030;2023-04-24T08:10:56;2.87;;;2.20;;
10910;SDS011;5508;49.150;11.030;2023-04-24T08:13:57;1.93;;;1.77;;
10910;SDS011;5508;49.150;11.030;2023-04-24T08:16:58;4.47;;;1.63;;
10910;SDS011;5508;49.150;11.030;2023-04-24T08:20:00;3.17;;;2.03;;
10910;SDS011;5508;49.150;11.030;2023-04-24T08:23:01;2.13;;;2.00;;
10910;SDS011;5508;49.150;11.030;2023-04-24T08:26:02;1.63;;;1.53;;
10910;SDS011;5508;49.150;11.030;2023-04-24T08:29:03;3.87;;;1.87;;
10910;SDS011;5508;49.150;11.030;2023-04-24T08:32:04;1.67;;;1.47;;
10910;SDS011;5508;49.150;11.030;2023-04-24T08:35:05;3.03;;;1.90;;
10910;SDS011;5508;49.150;11.030;2023-04-24T08:38:08;3.30;;;2.20;;
10910;SDS011;5508;49.150;11.030;2023-04-24T08:41:09;2.63;;;1.90;;
10910;SDS011;5508;49.150;11.030;2023-04-24T08:44:10;3.33;;;2.30;;
10910;SDS011;5508;49.150;11.030;2023-04-24T08:47:14;2.40;;;1.90;;
10910;SDS011;5508;49.150;11.030;2023-04-24T08:50:15;2.90;;;1.73;;
10910;SDS011;5508;49.150;11.030;2023-04-24T08:53:17;2.23;;;1.90;;
10910;SDS011;5508;49.150;11.030;2023-04-24T08:56:18;2.23;;;1.60;;
10910;SDS011;5508;49.150;11.030;2023-04-24T08:59:20;3.03;;;1.90;;
10910;SDS011;5508;49.150;11.030;2023-04-24T09:02:22;1.93;;;1.80;;
10910;SDS011;5508;49.150;11.030;2023-04-24T09:05:23;1.70;;;1.60;;
10910;SDS011;5508;49.150;11.030;2023-04-24T09:08:25;2.33;;;2.10;;
10910;SDS011;5508;49.150;11.030;2023-04-24T09:11:26;2.13;;;1.87;;
10910;SDS011;5508;49.150;11.030;2023-04-24T09:14:27;2.57;;;1.90;;
10910;SDS011;5508;49.150;11.030;2023-04-24T09:17:31;2.90;;;1.97;;
10910;SDS011;5508;49.150;11.030;2023-04-24T09:20:33;1.53;;;1.43;;
10910;SDS011;5508;49.150;11.030;2023-04-24T09:23:36;2.13;;;1.50;;
10910;SDS011;5508;49.150;11.030;2023-04-24T09:26:36;2.07;;;1.80;;
10910;SDS011;5508;49.150;11.030;2023-04-24T09:29:37;2.53;;;1.60;;
10910;SDS011;5508;49.150;11.030;2023-04-24T09:32:38;2.17;;;1.80;;
10910;SDS011;5508;49.150;11.030;2023-04-24T09:35:42;2.20;;;1.60;;
10910;SDS011;5508;49.150;11.030;2023-04-24T09:38:48;2.23;;;1.60;;
10910;SDS011;5508;49.150;11.030;2023-04-24T09:41:54;2.03;;;1.80;;
10910;SDS011;5508;49.150;11.030;2023-04-24T09:44:59;2.07;;;1.33;;
10910;SDS011;5508;49.150;11.030;2023-04-24T09:48:00;1.90;;;1.70;;
10910;SDS011;5508;49.150;11.030;2023-04-24T09:51:02;1.67;;;1.40;;
10910;SDS011;5508;49.150;11.030;2023-04-24T09:54:13;1.30;;;1.20;;
10910;SDS011;5508;49.150;11.030;2023-04-24T09:57:16;2.50;;;1.33;;
10910;SDS011;5508;49.150;11.030;2023-04-24T10:03:23;2.57;;;1.50;;
10910;SDS011;5508;49.150;11.030;2023-04-24T10:06:35;1.30;;;1.20;;
10910;SDS011;5508;49.150;11.030;2023-04-24T10:09:36;2.37;;;1.70;;
10910;SDS011;5508;49.150;11.030;2023-04-24T10:12:37;2.53;;;1.43;;
10910;SDS011;5508;49.150;11.030;2023-04-24T10:15:38;4.63;;;2.30;;
10910;SDS011;5508;49.150;11.030;2023-04-24T10:18:40;5.57;;;1.57;;
10910;SDS011;5508;49.150;11.030;2023-04-24T10:21:43;2.47;;;1.47;;
10910;SDS011;5508;49.150;11.030;2023-04-24T10:24:46;2.40;;;1.40;;
10910;SDS011;5508;49.150;11.030;2023-04-24T10:27:49;3.13;;;1.10;;
10910;SDS011;5508;49.150;11.030;2023-04-24T10:30:51;2.10;;;1.63;;
10910;SDS011;5508;49.150;11.030;2023-04-24T10:33:55;3.03;;;1.20;;
10910;SDS011;5508;49.150;11.030;2023-04-24T10:36:56;2.53;;;1.70;;
10910;SDS011;5508;49.150;11.030;2023-04-24T10:39:57;1.27;;;1.17;;
10910;SDS011;5508;49.150;11.030;2023-04-24T10:42:58;3.30;;;1.73;;
10910;SDS011;5508;49.150;11.030;2023-04-24T10:46:02;1.23;;;1.10;;
10910;SDS011;5508;49.150;11.030;2023-04-24T10:49:05;2.33;;;1.87;;
10910;SDS011;5508;49.150;11.030;2023-04-24T10:52:08;1.30;;;1.10;;
10910;SDS011;5508;49.150;11.030;2023-04-24T10:55:09;1.00;;;0.90;;
10910;SDS011;5508;49.150;11.030;2023-04-24T10:58:09;1.43;;;0.80;;
10910;SDS011;5508;49.150;11.030;2023-04-24T11:01:30;0.80;;;0.80;;
10910;SDS011;5508;49.150;11.030;2023-04-24T11:04:32;4.73;;;0.90;;
10910;SDS011;5508;49.150;11.030;2023-04-24T11:11:16;3.60;;;0.90;;
10910;SDS011;5508;49.150;11.030;2023-04-24T11:14:18;0.97;;;0.80;;
10910;SDS011;5508;49.150;11.030;2023-04-24T11:17:37;1.73;;;0.90;;
10910;SDS011;5508;49.150;11.030;2023-04-24T11:20:43;1.07;;;0.90;;
10910;SDS011;5508;49.150;11.030;2023-04-24T11:23:45;1.83;;;0.70;;
10910;SDS011;5508;49.150;11.030;2023-04-24T11:26:46;0.77;;;0.77;;
10910;SDS011;5508;49.150;11.030;2023-04-24T11:32:59;1.80;;;0.90;;
10910;SDS011;5508;49.150;11.030;2023-04-24T11:36:03;1.77;;;1.30;;
10910;SDS011;5508;49.150;11.030;2023-04-24T11:39:03;1.40;;;1.10;;
10910;SDS011;5508;49.150;11.030;2023-04-24T11:42:04;1.23;;;1.00;;
10910;SDS011;5508;49.150;11.030;2023-04-24T11:45:08;9.57;;;1.30;;
10910;SDS011;5508;49.150;11.030;2023-04-24T11:48:10;1.37;;;1.00;;
10910;SDS011;5508;49.150;11.030;2023-04-24T11:51:11;2.50;;;1.90;;
10910;SDS011;5508;49.150;11.030;2023-04-24T11:54:12;6.53;;;1.33;;
10910;SDS011;5508;49.150;11.030;2023-04-24T11:57:13;1.50;;;1.30;;
10910;SDS011;5508;49.150;11.030;2023-04-24T12:00:23;3.17;;;2.70;;
10910;SDS011;5508;49.150;11.030;2023-04-24T12:03:28;2.40;;;2.00;;
10910;SDS011;5508;49.150;11.030;2023-04-24T12:06:29;12.87;;;10.00;;
10910;SDS011;5508;49.150;11.030;2023-04-24T12:09:44;3.47;;;2.67;;
10910;SDS011;5508;49.150;11.030;2023-04-24T12:12:46;1.70;;;1.33;;
10910;SDS011;5508;49.150;11.030;2023-04-24T12:15:47;3.00;;;2.07;;
10910;SDS011;5508;49.150;11.030;2023-04-24T12:18:47;4.47;;;3.40;;
10910;SDS011;5508;49.150;11.030;2023-04-24T12:22:00;2.37;;;1.27;;
10910;SDS011;5508;49.150;11.030;2023-04-24T12:25:06;2.27;;;1.63;;
10910;SDS011;5508;49.150;11.030;2023-04-24T12:28:10;1.70;;;1.60;;
10910;SDS011;5508;49.150;11.030;2023-04-24T12:31:12;1.73;;;1.63;;
10910;SDS011;5508;49.150;11.030;2023-04-24T12:34:17;1.60;;;1.40;;
10910;SDS011;5508;49.150;11.030;2023-04-24T12:37:24;2.77;;;1.87;;
10910;SDS011;5508;49.150;11.030;2023-04-24T12:40:26;3.10;;;2.53;;
10910;SDS011;5508;49.150;11.030;2023-04-24T12:43:28;1.80;;;1.70;;
10910;SDS011;5508;49.150;11.030;2023-04-24T12:46:29;1.90;;;1.70;;
10910;SDS011;5508;49.150;11.030;2023-04-24T12:49:30;1.83;;;1.50;;
10910;SDS011;5508;49.150;11.030;2023-04-24T12:52:31;3.30;;;1.87;;
10910;SDS011;5508;49.150;11.030;2023-04-24T12:55:31;3.00;;;2.20;;
10910;SDS011;5508;49.150;11.030;2023-04-24T12:58:32;2.50;;;2.00;;
10910;SDS011;5508;49.150;11.030;2023-04-24T13:01:33;2.53;;;2.00;;
10910;SDS011;5508;49.150;11.030;2023-04-24T13:04:33;2.67;;;2.47;;
10910;SDS011;5508;49.150;11.030;2023-04-24T13:07:34;2.00;;;1.80;;
10910;SDS011;5508;49.150;11.030;2023-04-24T13:10:35;1.93;;;1.73;;
10910;SDS011;5508;49.150;11.030;2023-04-24T13:13:35;2.17;;;1.97;;
10910;SDS011;5508;49.150;11.030;2023-04-24T13:16:36;2.80;;;2.10;;
10910;SDS011;5508;49.150;11.030;2023-04-24T13:19:37;2.13;;;1.90;;
10910;SDS011;5508;49.150;11.030;2023-04-24T13:22:38;3.93;;;2.07;;
10910;SDS011;5508;49.150;11.030;2023-04-24T13:25:39;3.97;;;2.10;;
10910;SDS011;5508;49.150;11.030;2023-04-24T13:28:40;3.50;;;2.67;;
10910;SDS011;5508;49.150;11.030;2023-04-24T13:31:41;5.17;;;2.30;;
10910;SDS011;5508;49.150;11.030;2023-04-24T13:34:42;3.30;;;2.10;;
10910;SDS011;5508;49.150;11.030;2023-04-24T13:37:42;1.83;;;1.40;;
10910;SDS011;5508;49.150;11.030;2023-04-24T13:40:43;3.20;;;2.30;;
10910;SDS011;5508;49.150;11.030;2023-04-24T13:43:44;2.40;;;1.97;;
10910;SDS011;5508;49.150;11.030;2023-04-24T13:46:45;4.00;;;2.53;;
10910;SDS011;5508;49.150;11.030;2023-04-24T13:49:47;1.90;;;1.70;;
10910;SDS011;5508;49.150;11.030;2023-04-24T13:52:48;2.87;;;2.20;;
10910;SDS011;5508;49.150;11.030;2023-04-24T13:55:48;6.43;;;3.20;;
10910;SDS011;5508;49.150;11.030;2023-04-24T13:58:49;3.63;;;3.00;;
10910;SDS011;5508;49.150;11.030;2023-04-24T14:01:50;2.90;;;2.33;;
10910;SDS011;5508;49.150;11.030;2023-04-24T14:04:50;1.97;;;1.83;;
10910;SDS011;5508;49.150;11.030;2023-04-24T14:07:51;2.00;;;1.80;;
10910;SDS011;5508;49.150;11.030;2023-04-24T14:10:51;2.90;;;1.70;;
10910;SDS011;5508;49.150;11.030;2023-04-24T14:13:52;3.63;;;1.90;;
10910;SDS011;5508;49.150;11.030;2023-04-24T14:16:56;4.43;;;2.43;;
10910;SDS011;5508;49.150;11.030;2023-04-24T14:19:57;2.23;;;2.03;;
10910;SDS011;5508;49.150;11.030;2023-04-24T14:22:59;4.60;;;3.87;;
10910;SDS011;5508;49.150;11.030;2023-04-24T14:26:00;4.10;;;2.80;;
10910;SDS011;5508;49.150;11.030;2023-04-24T14:29:01;2.47;;;2.10;;
10910;SDS011;5508;49.150;11.030;2023-04-24T14:32:01;7.13;;;4.70;;
10910;SDS011;5508;49.150;11.030;2023-04-24T14:35:02;3.23;;;2.60;;
10910;SDS011;5508;49.150;11.030;2023-04-24T14:38:03;6.13;;;4.33;;
10910;SDS011;5508;49.150;11.030;2023-04-24T14:41:03;3.87;;;3.47;;
10910;SDS011;5508;49.150;11.030;2023-04-24T14:44:09;3.03;;;2.60;;
10910;SDS011;5508;49.150;11.030;2023-04-24T14:47:10;2.23;;;2.03;;
10910;SDS011;5508;49.150;11.030;2023-04-24T14:50:11;3.20;;;1.70;;
10910;SDS011;5508;49.150;11.030;2023-04-24T14:53:12;3.37;;;1.90;;
10910;SDS011;5508;49.150;11.030;2023-04-24T14:56:14;1.97;;;1.63;;
10910;SDS011;5508;49.150;11.030;2023-04-24T14:59:15;3.63;;;2.90;;
10910;SDS011;5508;49.150;11.030;2023-04-24T15:02:16;3.20;;;2.50;;
10910;SDS011;5508;49.150;11.030;2023-04-24T15:05:16;3.07;;;1.60;;
10910;SDS011;5508;49.150;11.030;2023-04-24T15:08:17;3.90;;;1.53;;
10910;SDS011;5508;49.150;11.030;2023-04-24T15:11:18;1.53;;;1.43;;
10910;SDS011;5508;49.150;11.030;2023-04-24T15:14:18;1.60;;;1.47;;
10910;SDS011;5508;49.150;11.030;2023-04-24T15:17:19;2.67;;;1.40;;
10910;SDS011;5508;49.150;11.030;2023-04-24T15:20:19;2.00;;;1.90;;
10910;SDS011;5508;49.150;11.030;2023-04-24T15:23:20;3.40;;;1.77;;
10910;SDS011;5508;49.150;11.030;2023-04-24T15:26:23;1.70;;;1.60;;
10910;SDS011;5508;49.150;11.030;2023-04-24T15:29:24;1.80;;;1.50;;
10910;SDS011;5508;49.150;11.030;2023-04-24T15:32:25;2.77;;;1.73;;
10910;SDS011;5508;49.150;11.030;2023-04-24T15:35:25;2.33;;;1.80;;
10910;SDS011;5508;49.150;11.030;2023-04-24T15:38:26;4.90;;;1.87;;
10910;SDS011;5508;49.150;11.030;2023-04-24T15:41:27;2.57;;;2.30;;
10910;SDS011;5508;49.150;11.030;2023-04-24T15:44:27;3.20;;;1.70;;
10910;SDS011;5508;49.150;11.030;2023-04-24T15:47:28;2.97;;;2.27;;
10910;SDS011;5508;49.150;11.030;2023-04-24T15:50:29;3.07;;;2.70;;
10910;SDS011;5508;49.150;11.030;2023-04-24T15:53:30;6.83;;;3.73;;
10910;SDS011;5508;49.150;11.030;2023-04-24T15:56:31;5.23;;;4.63;;
10910;SDS011;5508;49.150;11.030;2023-04-24T15:59:32;5.07;;;2.43;;
10910;SDS011;5508;49.150;11.030;2023-04-24T16:02:32;4.30;;;2.27;;
10910;SDS011;5508;49.150;11.030;2023-04-24T16:05:33;2.20;;;2.00;;
10910;SDS011;5508;49.150;11.030;2023-04-24T16:08:34;4.53;;;2.50;;
10910;SDS011;5508;49.150;11.030;2023-04-24T16:11:35;2.27;;;2.07;;
10910;SDS011;5508;49.150;11.030;2023-04-24T16:14:36;3.27;;;2.60;;
10910;SDS011;5508;49.150;11.030;2023-04-24T16:17:37;2.70;;;2.10;;
10910;SDS011;5508;49.150;11.030;2023-04-24T16:20:38;2.57;;;2.00;;
10910;SDS011;5508;49.150;11.030;2023-04-24T16:23:39;2.70;;;2.10;;
10910;SDS011;5508;49.150;11.030;2023-04-24T16:26:39;2.93;;;2.43;;
10910;SDS011;5508;49.150;11.030;2023-04-24T16:29:40;2.43;;;1.87;;
10910;SDS011;5508;49.150;11.030;2023-04-24T16:32:41;3.70;;;2.50;;
10910;SDS011;5508;49.150;11.030;2023-04-24T16:35:41;2.87;;;2.53;;
10910;SDS011;5508;49.150;11.030;2023-04-24T16:38:43;2.60;;;2.40;;
10910;SDS011;5508;49.150;11.030;2023-04-24T16:41:43;3.40;;;3.10;;
10910;SDS011;5508;49.150;11.030;2023-04-24T16:44:45;5.40;;;3.37;;
10910;SDS011;5508;49.150;11.030;2023-04-24T16:47:46;5.20;;;3.30;;
10910;SDS011;5508;49.150;11.030;2023-04-24T16:50:46;3.77;;;2.77;;
10910;SDS011;5508;49.150;11.030;2023-04-24T16:53:47;4.27;;;3.30;;
10910;SDS011;5508;49.150;11.030;2023-04-24T16:56:48;3.03;;;2.40;;
10910;SDS011;5508;49.150;11.030;2023-04-24T16:59:49;2.97;;;2.23;;
10910;SDS011;5508;49.150;11.030;2023-04-24T17:02:49;3.77;;;2.83;;
10910;SDS011;5508;49.150;11.030;2023-04-24T17:05:50;4.13;;;2.30;;
10910;SDS011;5508;49.150;11.030;2023-04-24T17:08:51;3.47;;;2.70;;
10910;SDS011;5508;49.150;11.030;2023-04-24T17:11:51;5.10;;;3.23;;
10910;SDS011;5508;49.150;11.030;2023-04-24T17:14:52;2.70;;;2.30;;
10910;SDS011;5508;49.150;11.030;2023-04-24T17:17:52;3.90;;;3.50;;
10910;SDS011;5508;49.150;11.030;2023-04-24T17:20:53;4.63;;;2.77;;
10910;SDS011;5508;49.150;11.030;2023-04-24T17:23:54;3.50;;;3.03;;
10910;SDS011;5508;49.150;11.030;2023-04-24T17:26:54;6.43;;;3.07;;
10910;SDS011;5508;49.150;11.030;2023-04-24T17:29:55;2.87;;;2.67;;
10910;SDS011;5508;49.150;11.030;2023-04-24T17:32:57;3.60;;;2.80;;
10910;SDS011;5508;49.150;11.030;2023-04-24T17:35:58;4.40;;;3.50;;
10910;SDS011;5508;49.150;11.030;2023-04-24T17:39:02;3.00;;;2.43;;
10910;SDS011;5508;49.150;11.030;2023-04-24T17:42:03;2.87;;;2.50;;
10910;SDS011;5508;49.150;11.030;2023-04-24T17:45:04;2.90;;;2.60;;
10910;SDS011;5508;49.150;11.030;2023-04-24T17:48:05;2.73;;;2.40;;
10910;SDS011;5508;49.150;11.030;2023-04-24T17:51:06;3.03;;;2.30;;
10910;SDS011;5508;49.150;11.030;2023-04-24T17:54:06;3.70;;;2.10;;
10910;SDS011;5508;49.150;11.030;2023-04-24T17:57:07;2.50;;;2.30;;
10910;SDS011;5508;49.150;11.030;2023-04-24T18:00:07;4.57;;;2.53;;
10910;SDS011;5508;49.150;11.030;2023-04-24T18:03:08;2.43;;;2.23;;
10910;SDS011;5508;49.150;11.030;2023-04-24T18:06:09;2.43;;;2.20;;
10910;SDS011;5508;49.150;11.030;2023-04-24T18:09:10;2.13;;;1.73;;
10910;SDS011;5508;49.150;11.030;2023-04-24T18:12:11;4.83;;;3.17;;
10910;SDS011;5508;49.150;11.030;2023-04-24T18:15:11;8.43;;;4.00;;
10910;SDS011;5508;49.150;11.030;2023-04-24T18:18:12;4.93;;;4.10;;
10910;SDS011;5508;49.150;11.030;2023-04-24T18:21:14;4.57;;;4.07;;
10910;SDS011;5508;49.150;11.030;2023-04-24T18:24:14;5.67;;;3.93;;